Terminal Aerodrome Forecast
Issued by NWS

Home | Current Version | Previous Version | Text Only | Print | Product List | Glossary On
Versions: 1 2 3 4 5 6 7 8 9 10 11 12 13 14 15
000
FTUS44 KLZK 181900 AAA
TAFLLQ
TAF AMD
KLLQ 181957Z 1820/1918 08004KT P6SM OVC009
      TEMPO 1821/1901 SCT012 OVC020
     FM190100 04003KT P6SM OVC015
     FM190800 04004KT 5SM BR OVC012
      TEMPO 1909/1913 3SM -DZ BR OVC007
     FM191600 05005KT P6SM VCSH OVC015=

USA.gov is the U.S. government's official web portal to all federal, state and local government web resources and services.